createdAt,value
2023-04-26T00:01:08.527Z,9.01
2023-04-26T00:06:12.507Z,8.94
2023-04-26T00:11:14.691Z,8.99
2023-04-26T00:16:18.686Z,8.89
2023-04-26T00:21:21.558Z,8.95
2023-04-26T00:26:24.488Z,8.90
2023-04-26T00:31:27.422Z,8.90
2023-04-26T00:36:30.185Z,8.98
2023-04-26T00:41:32.907Z,8.89
2023-04-26T00:46:35.524Z,8.75
2023-04-26T00:51:38.649Z,8.83
2023-04-26T00:56:41.743Z,8.69
2023-04-26T01:01:43.929Z,8.68
2023-04-26T01:06:46.880Z,8.76
2023-04-26T01:11:49.916Z,8.94
2023-04-26T01:16:52.720Z,8.85
2023-04-26T01:21:55.329Z,8.69
2023-04-26T01:26:58.492Z,8.59
2023-04-26T01:32:01.306Z,8.55
2023-04-26T01:37:04.313Z,8.66
2023-04-26T01:42:06.983Z,8.41
2023-04-26T01:47:09.712Z,8.47
2023-04-26T01:52:11.846Z,8.58
2023-04-26T01:57:14.448Z,8.50
2023-04-26T02:02:19.173Z,8.38
2023-04-26T02:07:21.762Z,8.56
2023-04-26T02:12:23.869Z,8.25
2023-04-26T02:17:26.796Z,8.30
2023-04-26T02:22:29.933Z,8.28
2023-04-26T02:27:51.893Z,8.15
2023-04-26T02:32:56.090Z,8.13
2023-04-26T02:37:58.919Z,7.99
2023-04-26T02:43:01.849Z,8.05
2023-04-26T02:48:04.581Z,8.20
2023-04-26T02:53:07.360Z,8.33
2023-04-26T02:58:10.135Z,8.36
2023-04-26T03:03:12.951Z,8.43
2023-04-26T03:08:15.810Z,8.46
2023-04-26T03:13:18.728Z,8.41
2023-04-26T03:18:21.755Z,8.28
2023-04-26T03:23:25.637Z,8.44
2023-04-26T03:28:29.512Z,8.22
2023-04-26T03:33:32.560Z,8.34
2023-04-26T03:38:35.237Z,8.01
2023-04-26T03:43:38.374Z,8.07
2023-04-26T03:48:41.785Z,8.13
2023-04-26T03:53:46.978Z,8.13
2023-04-26T03:58:50.069Z,7.91
2023-04-26T04:03:53.195Z,7.89
2023-04-26T04:08:56.421Z,8.18
2023-04-26T04:13:59.874Z,8.21
2023-04-26T04:19:02.502Z,8.24
2023-04-26T04:24:05.905Z,8.37
2023-04-26T04:29:11.551Z,8.34
2023-04-26T04:34:14.895Z,8.58
2023-04-26T04:39:18.040Z,8.63
2023-04-26T04:44:23.052Z,8.61
2023-04-26T04:49:27.615Z,8.73
2023-04-26T04:54:30.629Z,8.88
2023-04-26T04:59:33.642Z,9.23
2023-04-26T05:04:36.862Z,9.33
2023-04-26T05:09:39.849Z,9.91
2023-04-26T05:14:42.971Z,10.53
2023-04-26T05:19:45.844Z,11.64
2023-04-26T05:24:49.551Z,12.38
2023-04-26T05:29:51.820Z,12.75
2023-04-26T05:35:19.835Z,12.40
2023-04-26T05:40:22.640Z,12.65
2023-04-26T05:45:25.698Z,12.91
2023-04-26T05:50:28.422Z,13.72
2023-04-26T05:55:31.256Z,15.08
2023-04-26T06:00:33.899Z,18.33
2023-04-26T06:05:38.859Z,21.28
2023-04-26T06:10:41.704Z,23.79
2023-04-26T06:15:44.523Z,26.77
2023-04-26T06:20:47.639Z,27.22
2023-04-26T06:25:50.592Z,27.79
2023-04-26T06:30:53.334Z,27.46
2023-04-26T06:35:56.105Z,28.18
2023-04-26T06:41:00.413Z,28.82
2023-04-26T06:46:03.177Z,27.51
2023-04-26T06:51:07.642Z,25.89
2023-04-26T06:56:10.477Z,26.86
2023-04-26T07:01:13.560Z,27.24
2023-04-26T07:06:16.904Z,25.72
2023-04-26T07:11:19.586Z,25.29
2023-04-26T07:16:21.899Z,24.80
2023-04-26T07:21:25.659Z,23.70
2023-04-26T07:26:28.325Z,20.67
2023-04-26T07:31:32.688Z,19.73
2023-04-26T07:36:35.300Z,19.78
2023-04-26T07:41:38.014Z,19.60
2023-04-26T07:46:40.319Z,18.24
2023-04-26T07:51:44.594Z,16.78
2023-04-26T07:56:47.241Z,17.62
2023-04-26T08:01:50.257Z,17.90
2023-04-26T08:06:52.914Z,18.99
2023-04-26T08:11:55.678Z,18.81
2023-04-26T08:16:58.379Z,17.30
2023-04-26T08:22:01.228Z,17.19
2023-04-26T08:27:03.939Z,16.92
2023-04-26T08:32:07.555Z,17.19
2023-04-26T08:37:10.437Z,17.18
2023-04-26T08:42:17.405Z,19.15
2023-04-26T08:47:34.655Z,20.59
2023-04-26T08:52:38.476Z,20.50
2023-04-26T08:57:41.444Z,20.65
2023-04-26T09:02:53.687Z,19.68
2023-04-26T09:08:05.517Z,18.25
2023-04-26T09:13:08.149Z,17.72
2023-04-26T09:18:21.589Z,17.92
2023-04-26T09:23:24.456Z,17.58
2023-04-26T09:28:27.634Z,17.15
2023-04-26T09:33:30.340Z,16.82
2023-04-26T09:38:42.987Z,16.68
2023-04-26T09:43:45.624Z,16.88
2023-04-26T09:49:01.700Z,16.05
2023-04-26T09:54:04.326Z,16.84
2023-04-26T09:59:10.900Z,17.00
2023-04-26T10:04:13.797Z,16.84
2023-04-26T10:09:16.430Z,17.53
2023-04-26T10:14:19.092Z,17.85
2023-04-26T10:19:23.016Z,17.29
2023-04-26T10:24:26.248Z,16.76
2023-04-26T10:29:55.171Z,16.92
2023-04-26T10:35:13.890Z,16.53
2023-04-26T10:40:27.816Z,16.50
2023-04-26T10:45:30.610Z,16.52
2023-04-26T10:50:33.445Z,15.75
2023-04-26T10:55:44.066Z,16.24
2023-04-26T11:01:13.819Z,16.50
2023-04-26T11:06:16.466Z,16.46
2023-04-26T11:11:22.489Z,16.11
2023-04-26T11:16:29.517Z,15.42
2023-04-26T11:21:33.062Z,16.06
2023-04-26T11:26:36.788Z,16.54
2023-04-26T11:31:39.412Z,17.17
2023-04-26T11:36:41.727Z,17.12
2023-04-26T11:41:44.415Z,17.06
2023-04-26T11:46:50.855Z,17.16
2023-04-26T11:51:53.836Z,16.83
2023-04-26T11:56:57.094Z,16.16
2023-04-26T12:02:01.913Z,16.44
2023-04-26T12:07:07.558Z,16.73
2023-04-26T12:12:12.645Z,16.57
2023-04-26T12:17:15.547Z,16.69
2023-04-26T12:22:22.430Z,16.85
2023-04-26T12:27:25.022Z,17.45
2023-04-26T12:32:27.540Z,17.20
2023-04-26T12:37:30.158Z,16.35
2023-04-26T12:42:33.086Z,16.64
2023-04-26T12:47:35.842Z,17.11
2023-04-26T12:52:38.445Z,17.12
2023-04-26T12:57:42.629Z,16.22
2023-04-26T13:02:45.024Z,16.08
2023-04-26T13:07:48.167Z,16.45
2023-04-26T13:12:50.338Z,16.35
2023-04-26T13:17:54.071Z,16.14
2023-04-26T13:22:56.229Z,15.86
2023-04-26T13:27:59.546Z,16.11
2023-04-26T13:33:01.763Z,16.30
2023-04-26T13:38:04.553Z,16.63
2023-04-26T13:43:07.149Z,16.71
2023-04-26T13:48:09.909Z,16.87
2023-04-26T13:53:12.667Z,16.53
2023-04-26T13:58:15.730Z,16.47
2023-04-26T14:03:18.779Z,16.12
2023-04-26T14:08:21.426Z,15.95
2023-04-26T14:13:23.514Z,15.65
2023-04-26T14:18:25.725Z,15.67
2023-04-26T14:23:28.204Z,15.74
2023-04-26T14:28:30.966Z,15.53
2023-04-26T14:33:33.454Z,15.76
2023-04-26T14:38:35.808Z,15.72
2023-04-26T14:43:38.576Z,15.51
2023-04-26T14:48:41.500Z,15.69
2023-04-26T14:53:44.134Z,15.47
2023-04-26T14:58:46.805Z,15.59
2023-04-26T15:03:49.533Z,15.43
2023-04-26T15:08:52.213Z,15.07
2023-04-26T15:13:54.274Z,15.17
2023-04-26T15:18:56.780Z,15.18
2023-04-26T15:24:01.244Z,14.89
2023-04-26T15:29:03.992Z,14.62
2023-04-26T15:34:06.748Z,14.77
2023-04-26T15:39:09.330Z,14.96
2023-04-26T15:44:12.660Z,15.21
2023-04-26T15:49:15.449Z,14.59
2023-04-26T15:54:17.632Z,14.32
2023-04-26T15:59:20.403Z,14.45
2023-04-26T16:04:22.771Z,14.38
2023-04-26T16:09:26.175Z,14.79
2023-04-26T16:14:28.353Z,14.54
2023-04-26T16:19:31.828Z,14.67
2023-04-26T16:24:34.101Z,14.40
2023-04-26T16:29:36.739Z,14.66
2023-04-26T16:34:38.807Z,14.55
2023-04-26T16:39:41.656Z,14.83
2023-04-26T16:44:44.248Z,14.31
2023-04-26T16:49:46.914Z,14.12
2023-04-26T16:54:49.510Z,13.77
2023-04-26T16:59:52.229Z,13.45
2023-04-26T17:04:55.384Z,13.61
2023-04-26T17:09:58.407Z,13.50
2023-04-26T17:15:04.444Z,13.41
2023-04-26T17:20:10.131Z,13.15
2023-04-26T17:25:14.181Z,13.13
2023-04-26T17:30:16.974Z,13.09
2023-04-26T17:35:19.336Z,13.11
2023-04-26T17:40:21.979Z,13.15
2023-04-26T17:45:24.639Z,12.83
2023-04-26T17:50:27.328Z,12.89
2023-04-26T17:55:29.966Z,12.71
2023-04-26T18:00:32.651Z,12.75
2023-04-26T18:05:35.321Z,12.72
2023-04-26T18:10:37.999Z,12.75
2023-04-26T18:15:43.752Z,12.61
2023-04-26T18:20:46.383Z,12.72
2023-04-26T18:25:50.681Z,12.35
2023-04-26T18:31:08.386Z,12.30
2023-04-26T18:36:11.143Z,12.18
2023-04-26T18:41:13.984Z,12.25
2023-04-26T18:46:16.808Z,12.32
2023-04-26T18:51:19.682Z,12.22
2023-04-26T18:56:22.845Z,12.06
2023-04-26T19:01:25.657Z,11.78
2023-04-26T19:06:28.444Z,11.78
2023-04-26T19:11:31.461Z,11.76
2023-04-26T19:16:35.469Z,11.61
2023-04-26T19:21:38.280Z,11.73
2023-04-26T19:26:40.417Z,11.54
2023-04-26T19:31:43.178Z,11.40
2023-04-26T19:36:45.663Z,10.68
2023-04-26T19:41:48.235Z,10.21
2023-04-26T19:46:50.374Z,9.98
2023-04-26T19:51:53.024Z,9.81
2023-04-26T19:56:55.705Z,9.54
2023-04-26T20:01:57.860Z,9.48
2023-04-26T20:07:19.005Z,9.43
2023-04-26T20:12:21.710Z,9.32
2023-04-26T20:17:24.465Z,9.13
2023-04-26T20:22:27.127Z,8.78
2023-04-26T20:27:29.665Z,8.74
2023-04-26T20:32:32.343Z,8.69
2023-04-26T20:37:36.069Z,8.58
2023-04-26T20:42:38.605Z,8.64
2023-04-26T20:47:41.352Z,8.52
2023-04-26T20:52:43.990Z,8.51
2023-04-26T20:58:05.150Z,8.46
2023-04-26T21:03:08.968Z,8.31
2023-04-26T21:08:13.982Z,8.28
2023-04-26T21:13:19.247Z,8.29
2023-04-26T21:18:21.852Z,8.19
2023-04-26T21:23:24.645Z,8.24
2023-04-26T21:28:27.273Z,7.90
2023-04-26T21:33:29.837Z,8.02
2023-04-26T21:38:32.443Z,7.99
2023-04-26T21:43:35.137Z,7.78
2023-04-26T21:48:39.496Z,8.02
2023-04-26T21:53:42.136Z,8.02
2023-04-26T21:58:44.727Z,7.79
2023-04-26T22:03:47.290Z,7.85
2023-04-26T22:08:49.472Z,7.98
2023-04-26T22:13:52.163Z,7.96
2023-04-26T22:18:55.255Z,7.89
2023-04-26T22:23:57.493Z,8.01
2023-04-26T22:29:00.301Z,8.07
2023-04-26T22:34:02.673Z,8.16
2023-04-26T22:39:05.358Z,8.21
2023-04-26T22:44:08.453Z,8.43
2023-04-26T22:49:11.043Z,8.31
2023-04-26T22:54:13.927Z,8.45
2023-04-26T22:59:16.496Z,8.20
2023-04-26T23:04:19.139Z,8.00
2023-04-26T23:09:21.841Z,8.03
2023-04-26T23:14:24.506Z,8.05
2023-04-26T23:19:27.153Z,8.10
2023-04-26T23:24:29.684Z,7.88
2023-04-26T23:29:32.238Z,7.86
2023-04-26T23:34:34.907Z,7.88
2023-04-26T23:39:37.474Z,8.01
2023-04-26T23:44:40.143Z,8.00
2023-04-26T23:49:42.677Z,7.78
2023-04-26T23:54:45.418Z,7.65
2023-04-26T23:59:48.073Z,7.91
